createdAt,value
2024-04-24T00:01:20.770Z,6.36
2024-04-24T00:03:47.480Z,6.35
2024-04-24T00:06:14.181Z,6.32
2024-04-24T00:08:40.831Z,6.30
2024-04-24T00:11:07.477Z,6.29
2024-04-24T00:13:34.146Z,6.28
2024-04-24T00:16:00.799Z,6.22
2024-04-24T00:18:27.562Z,6.22
2024-04-24T00:20:57.281Z,6.21
2024-04-24T00:23:23.964Z,6.21
2024-04-24T00:25:50.798Z,6.13
2024-04-24T00:28:17.497Z,6.11
2024-04-24T00:30:44.208Z,6.07
2024-04-24T00:33:11.364Z,6.02
2024-04-24T00:35:38.228Z,5.98
2024-04-24T00:38:05.155Z,5.91
2024-04-24T00:40:37.759Z,5.90
2024-04-24T00:43:04.622Z,5.80
2024-04-24T00:45:31.266Z,5.80
2024-04-24T00:47:58.607Z,5.72
2024-04-24T00:50:26.773Z,5.66
2024-04-24T00:52:53.631Z,5.66
2024-04-24T00:55:20.661Z,5.62
2024-04-24T00:57:47.443Z,5.62
2024-04-24T01:00:14.261Z,5.56
2024-04-24T01:02:41.980Z,5.51
2024-04-24T01:05:08.863Z,5.47
2024-04-24T01:07:38.964Z,5.41
2024-04-24T01:10:16.610Z,5.36
2024-04-24T01:12:43.637Z,5.31
2024-04-24T01:15:10.720Z,5.25
2024-04-24T01:17:42.093Z,5.28
2024-04-24T01:20:15.507Z,5.26
2024-04-24T01:23:10.180Z,5.21
2024-04-24T01:25:42.915Z,5.24
2024-04-24T01:28:09.668Z,5.27
2024-04-24T01:30:36.281Z,5.31
2024-04-24T01:33:03.221Z,5.31
2024-04-24T01:35:30.236Z,5.33
2024-04-24T01:37:56.883Z,5.27
2024-04-24T01:40:23.817Z,5.28
2024-04-24T01:42:50.428Z,5.37
2024-04-24T01:45:17.169Z,5.32
2024-04-24T01:47:44.025Z,5.29
2024-04-24T01:50:10.721Z,5.30
2024-04-24T01:52:37.405Z,5.26
2024-04-24T01:55:04.116Z,5.28
2024-04-24T01:57:30.779Z,5.31
2024-04-24T01:59:57.380Z,5.32
2024-04-24T02:02:24.048Z,5.28
2024-04-24T02:04:50.734Z,5.22
2024-04-24T02:07:17.371Z,5.15
2024-04-24T02:09:44.002Z,5.12
2024-04-24T02:12:16.165Z,5.12
2024-04-24T02:14:43.878Z,5.14
2024-04-24T02:17:10.608Z,5.06
2024-04-24T02:19:37.374Z,4.90
2024-04-24T02:22:04.222Z,4.86
2024-04-24T02:24:49.585Z,4.85
2024-04-24T02:27:16.292Z,4.85
2024-04-24T02:29:51.395Z,4.86
2024-04-24T02:32:22.991Z,4.83
2024-04-24T02:34:49.790Z,4.88
2024-04-24T02:37:16.429Z,4.92
2024-04-24T02:39:43.076Z,4.90
2024-04-24T02:42:09.721Z,4.87
2024-04-24T02:44:37.627Z,4.89
2024-04-24T02:47:04.342Z,4.86
2024-04-24T02:49:31.114Z,4.80
2024-04-24T02:51:57.709Z,4.79
2024-04-24T02:54:24.382Z,4.81
2024-04-24T02:56:53.191Z,4.84
2024-04-24T02:59:21.198Z,4.85
2024-04-24T03:01:48.042Z,4.87
2024-04-24T03:04:14.896Z,4.87
2024-04-24T03:06:43.184Z,4.84
2024-04-24T03:09:10.693Z,4.77
2024-04-24T03:11:39.536Z,4.71
2024-04-24T03:14:06.266Z,4.75
2024-04-24T03:16:34.133Z,4.76
2024-04-24T03:19:00.779Z,4.65
2024-04-24T03:21:27.411Z,4.66
2024-04-24T03:23:54.024Z,4.57
2024-04-24T03:26:20.727Z,4.50
2024-04-24T03:28:47.547Z,4.55
2024-04-24T03:31:14.263Z,4.63
2024-04-24T03:33:40.961Z,4.66
2024-04-24T03:36:07.723Z,4.67
2024-04-24T03:38:34.321Z,4.69
2024-04-24T03:41:01.060Z,4.69
2024-04-24T03:43:27.701Z,4.69
2024-04-24T03:45:54.341Z,4.70
2024-04-24T03:48:21.028Z,4.63
2024-04-24T03:50:47.679Z,4.62
2024-04-24T03:53:14.321Z,4.61
2024-04-24T03:55:41.896Z,4.62
2024-04-24T03:58:08.620Z,4.55
2024-04-24T04:00:35.249Z,4.48
2024-04-24T04:03:01.939Z,4.44
2024-04-24T04:05:28.759Z,4.30
2024-04-24T04:08:01.553Z,4.24
2024-04-24T04:10:28.431Z,4.23
2024-04-24T04:12:55.109Z,4.23
2024-04-24T04:15:21.799Z,4.27
2024-04-24T04:17:49.224Z,4.30
2024-04-24T04:20:16.063Z,4.28
2024-04-24T04:22:43.354Z,4.32
2024-04-24T04:25:10.594Z,4.30
2024-04-24T04:27:37.380Z,4.34
2024-04-24T04:30:04.502Z,4.26
2024-04-24T04:32:31.278Z,4.22
2024-04-24T04:34:58.016Z,4.15
2024-04-24T04:37:24.739Z,4.12
2024-04-24T04:39:51.575Z,4.13
2024-04-24T04:42:18.231Z,4.15
2024-04-24T04:44:44.836Z,4.12
2024-04-24T04:47:11.727Z,4.07
2024-04-24T04:49:38.465Z,4.08
2024-04-24T04:52:05.338Z,4.09
2024-04-24T04:54:31.984Z,4.21
2024-04-24T04:56:59.394Z,4.34
2024-04-24T04:59:26.093Z,4.41
2024-04-24T05:01:53.495Z,4.51
2024-04-24T05:04:20.926Z,4.61
2024-04-24T05:06:47.561Z,4.73
2024-04-24T05:09:14.141Z,4.82
2024-04-24T05:11:42.183Z,4.96
2024-04-24T05:14:08.966Z,5.09
2024-04-24T05:16:35.598Z,5.13
2024-04-24T05:19:02.347Z,5.22
2024-04-24T05:21:28.973Z,5.22
2024-04-24T05:23:55.740Z,5.15
2024-04-24T05:26:40.957Z,5.14
2024-04-24T05:29:08.904Z,5.09
2024-04-24T05:31:38.132Z,5.10
2024-04-24T05:34:05.495Z,5.09
2024-04-24T05:36:32.165Z,5.06
2024-04-24T05:38:58.948Z,5.13
2024-04-24T05:41:25.616Z,5.11
2024-04-24T05:43:52.514Z,5.16
2024-04-24T05:46:19.611Z,5.18
2024-04-24T05:48:46.391Z,5.21
2024-04-24T05:51:13.082Z,5.28
2024-04-24T05:53:39.678Z,5.33
2024-04-24T05:56:06.929Z,5.26
2024-04-24T05:58:33.554Z,5.21
2024-04-24T06:01:00.206Z,5.26
2024-04-24T06:03:26.860Z,5.37
2024-04-24T06:05:53.506Z,5.27
2024-04-24T06:08:20.407Z,5.24
2024-04-24T06:10:47.029Z,5.36
2024-04-24T06:13:13.775Z,5.46
2024-04-24T06:15:40.522Z,5.47
2024-04-24T06:18:07.285Z,5.49
2024-04-24T06:20:33.994Z,5.47
2024-04-24T06:23:00.682Z,5.50
2024-04-24T06:25:27.332Z,5.54
2024-04-24T06:27:53.994Z,5.62
2024-04-24T06:30:20.627Z,5.68
2024-04-24T06:32:49.771Z,5.65
2024-04-24T06:35:23.995Z,5.63
2024-04-24T06:37:54.752Z,5.73
2024-04-24T06:40:21.542Z,5.86
2024-04-24T06:42:50.222Z,6.04
2024-04-24T06:45:16.846Z,6.24
2024-04-24T06:47:43.578Z,6.26
2024-04-24T06:50:10.321Z,6.35
2024-04-24T06:52:37.016Z,6.24
2024-04-24T06:55:03.854Z,6.08
2024-04-24T06:57:30.499Z,6.08
2024-04-24T06:59:58.117Z,5.75
2024-04-24T07:02:24.822Z,5.29
2024-04-24T07:04:51.502Z,5.09
2024-04-24T07:07:23.133Z,4.77
2024-04-24T07:09:50.189Z,4.30
2024-04-24T07:12:16.870Z,4.09
2024-04-24T07:14:43.505Z,4.12
2024-04-24T07:17:10.130Z,4.22
2024-04-24T07:19:36.876Z,4.31
2024-04-24T07:22:03.529Z,4.44
2024-04-24T07:24:30.157Z,4.48
2024-04-24T07:26:56.791Z,4.60
2024-04-24T07:29:23.533Z,4.78
2024-04-24T07:31:50.382Z,4.83
2024-04-24T07:34:17.421Z,5.00
2024-04-24T07:36:44.114Z,5.15
2024-04-24T07:39:10.779Z,5.41
2024-04-24T07:41:39.852Z,5.57
2024-04-24T07:44:08.462Z,5.65
2024-04-24T07:46:35.164Z,5.90
2024-04-24T07:49:01.880Z,6.17
2024-04-24T07:51:28.540Z,6.27
2024-04-24T07:53:55.225Z,6.44
2024-04-24T07:56:21.915Z,6.76
2024-04-24T07:58:48.547Z,6.99
2024-04-24T08:01:16.782Z,7.23
2024-04-24T08:03:43.443Z,7.37
2024-04-24T08:06:10.253Z,7.36
2024-04-24T08:08:40.527Z,7.19
2024-04-24T08:11:07.229Z,6.85
2024-04-24T08:13:33.853Z,6.69
2024-04-24T08:16:00.656Z,6.63
2024-04-24T08:18:27.497Z,6.84
2024-04-24T08:20:55.508Z,7.06
2024-04-24T08:23:26.468Z,6.91
2024-04-24T08:25:54.222Z,6.98
2024-04-24T08:28:30.149Z,6.97
2024-04-24T08:31:05.610Z,6.86
2024-04-24T08:33:36.569Z,6.95
2024-04-24T08:36:11.178Z,6.84
2024-04-24T08:38:38.932Z,7.07
2024-04-24T08:41:10.407Z,7.12
2024-04-24T08:43:40.050Z,7.15
2024-04-24T08:46:08.315Z,7.31
2024-04-24T08:48:43.787Z,7.51
2024-04-24T08:51:11.994Z,7.86
2024-04-24T08:53:50.071Z,8.06
2024-04-24T08:56:19.909Z,8.12
2024-04-24T08:58:51.061Z,8.06
2024-04-24T09:01:22.553Z,7.98
2024-04-24T09:03:58.507Z,8.11
2024-04-24T09:06:25.821Z,8.00
2024-04-24T09:08:55.294Z,8.03
2024-04-24T09:11:22.246Z,8.03
2024-04-24T09:13:49.170Z,8.40
2024-04-24T09:16:20.026Z,8.89
2024-04-24T09:19:05.845Z,8.80
2024-04-24T09:21:33.180Z,8.35
2024-04-24T09:23:59.867Z,7.96
2024-04-24T09:26:27.734Z,7.79
2024-04-24T09:28:54.646Z,7.77
2024-04-24T09:31:23.316Z,8.03
2024-04-24T09:33:51.202Z,8.29
2024-04-24T09:36:18.090Z,8.26
2024-04-24T09:38:46.286Z,8.31
2024-04-24T09:41:13.205Z,8.18
2024-04-24T09:43:40.003Z,8.17
2024-04-24T09:46:06.709Z,7.97
2024-04-24T09:48:33.509Z,7.82
2024-04-24T09:51:00.433Z,7.57
2024-04-24T09:53:27.186Z,7.37
2024-04-24T09:56:12.491Z,7.13
2024-04-24T09:58:43.884Z,6.72
2024-04-24T10:01:13.745Z,6.62
2024-04-24T10:03:42.118Z,6.70
2024-04-24T10:06:13.050Z,6.85
2024-04-24T10:08:42.334Z,7.07
2024-04-24T10:11:13.779Z,7.17
2024-04-24T10:13:42.757Z,7.29
2024-04-24T10:16:09.452Z,7.47
2024-04-24T10:18:36.887Z,7.72
2024-04-24T10:21:05.511Z,7.97
2024-04-24T10:23:33.059Z,8.38
2024-04-24T10:26:00.976Z,8.58
2024-04-24T10:28:29.011Z,8.59
2024-04-24T10:30:58.158Z,8.60
2024-04-24T10:33:26.785Z,8.54
2024-04-24T10:35:53.932Z,8.45
2024-04-24T10:38:20.658Z,8.25
2024-04-24T10:40:49.640Z,8.17
2024-04-24T10:43:17.254Z,8.30
2024-04-24T10:45:53.930Z,8.41
2024-04-24T10:48:20.880Z,8.36
2024-04-24T10:50:57.402Z,8.28
2024-04-24T10:53:24.978Z,8.31
2024-04-24T10:56:00.378Z,8.22
2024-04-24T10:58:27.532Z,8.17
2024-04-24T11:00:54.320Z,7.89
2024-04-24T11:03:25.764Z,7.77
2024-04-24T11:05:52.790Z,7.64
2024-04-24T11:08:21.012Z,7.61
2024-04-24T11:10:51.913Z,7.49
2024-04-24T11:13:18.688Z,7.60
2024-04-24T11:15:54.428Z,7.48
2024-04-24T11:18:25.669Z,7.36
2024-04-24T11:20:52.364Z,7.27
2024-04-24T11:23:19.057Z,7.53
2024-04-24T11:25:58.575Z,7.64
2024-04-24T11:28:27.734Z,7.57
2024-04-24T11:30:54.757Z,7.66
2024-04-24T11:33:22.611Z,7.48
2024-04-24T11:35:52.223Z,7.26
2024-04-24T11:38:19.027Z,7.28
2024-04-24T11:40:45.972Z,7.28
2024-04-24T11:43:20.007Z,7.63
2024-04-24T11:46:17.320Z,8.41
2024-04-24T11:49:54.937Z,8.60
2024-04-24T11:52:22.309Z,8.61
2024-04-24T11:54:53.816Z,8.46
2024-04-24T11:57:21.733Z,8.12
2024-04-24T11:59:48.910Z,8.22
2024-04-24T12:02:19.189Z,8.26
2024-04-24T12:04:47.465Z,8.88
2024-04-24T12:07:15.132Z,8.90
2024-04-24T12:09:41.867Z,8.56
2024-04-24T12:12:08.822Z,8.60
2024-04-24T12:14:37.022Z,9.17
2024-04-24T12:17:04.618Z,8.93
2024-04-24T12:19:31.520Z,9.23
2024-04-24T12:21:58.518Z,9.55
2024-04-24T12:24:26.440Z,9.59
2024-04-24T12:26:55.946Z,10.06
2024-04-24T12:29:22.689Z,9.85
2024-04-24T12:31:49.493Z,10.13
2024-04-24T12:34:18.616Z,10.42
2024-04-24T12:36:45.384Z,10.59
2024-04-24T12:39:12.341Z,10.05
2024-04-24T12:41:39.016Z,9.35
2024-04-24T12:44:06.830Z,9.08
2024-04-24T12:46:33.821Z,9.06
2024-04-24T12:49:03.462Z,9.03
2024-04-24T12:51:32.139Z,8.88
2024-04-24T12:53:59.379Z,9.42
2024-04-24T12:56:26.071Z,9.58
2024-04-24T12:58:52.777Z,8.98
2024-04-24T13:01:25.849Z,8.74
2024-04-24T13:03:52.669Z,8.44
2024-04-24T13:06:24.101Z,8.38
2024-04-24T13:08:51.093Z,8.69
2024-04-24T13:11:17.896Z,8.93
2024-04-24T13:13:44.547Z,8.85
2024-04-24T13:16:11.596Z,8.73
2024-04-24T13:18:38.565Z,8.71
2024-04-24T13:21:05.616Z,8.79
2024-04-24T13:23:32.304Z,8.62
2024-04-24T13:25:58.975Z,8.33
2024-04-24T13:28:25.829Z,8.08
2024-04-24T13:30:52.520Z,7.98
2024-04-24T13:33:19.560Z,7.92
2024-04-24T13:35:48.714Z,8.45
2024-04-24T13:38:16.756Z,8.97
2024-04-24T13:40:43.389Z,9.24
2024-04-24T13:43:10.095Z,9.28
2024-04-24T13:48:04.694Z,9.23
2024-04-24T13:50:31.738Z,9.25
2024-04-24T13:52:58.563Z,9.37
2024-04-24T13:55:25.234Z,9.45
2024-04-24T13:57:51.888Z,9.56
2024-04-24T14:00:18.744Z,9.52
2024-04-24T14:02:45.751Z,9.35
2024-04-24T14:05:12.603Z,9.46
2024-04-24T14:07:39.354Z,9.40
2024-04-24T14:10:07.189Z,9.27
2024-04-24T14:12:33.922Z,9.03
2024-04-24T14:15:00.619Z,9.02
2024-04-24T14:17:27.886Z,9.17
2024-04-24T14:19:56.033Z,9.48
2024-04-24T14:22:23.115Z,9.76
2024-04-24T14:24:51.424Z,9.67
2024-04-24T14:27:18.137Z,9.33
2024-04-24T14:29:44.939Z,9.37
2024-04-24T14:32:11.843Z,9.51
2024-04-24T14:34:38.681Z,9.41
2024-04-24T14:37:06.085Z,9.12
2024-04-24T14:39:32.929Z,8.96
2024-04-24T14:42:01.596Z,8.76
2024-04-24T14:44:29.070Z,8.28
2024-04-24T14:46:55.809Z,7.80
2024-04-24T14:49:22.611Z,7.20
2024-04-24T14:51:49.310Z,6.96
2024-04-24T14:54:16.028Z,6.73
2024-04-24T14:56:44.374Z,6.66
2024-04-24T14:59:11.122Z,6.81
2024-04-24T15:01:37.971Z,6.95
2024-04-24T15:04:05.581Z,7.05
2024-04-24T15:06:34.859Z,7.13
2024-04-24T15:09:01.541Z,7.24
2024-04-24T15:11:28.450Z,7.47
2024-04-24T15:13:55.343Z,7.65
2024-04-24T15:16:21.970Z,7.77
2024-04-24T15:18:49.142Z,7.80
2024-04-24T15:21:15.874Z,7.80
2024-04-24T15:23:46.272Z,7.71
2024-04-24T15:26:14.743Z,7.51
2024-04-24T15:28:41.401Z,7.41
2024-04-24T15:31:08.748Z,7.37
2024-04-24T15:33:35.648Z,7.50
2024-04-24T15:36:02.440Z,7.73
2024-04-24T15:38:29.167Z,7.83
2024-04-24T15:40:56.041Z,7.91
2024-04-24T15:43:22.631Z,7.92
2024-04-24T15:45:50.004Z,7.90
2024-04-24T15:48:16.977Z,7.89
2024-04-24T15:50:43.728Z,7.87
2024-04-24T15:53:10.432Z,7.75
2024-04-24T15:55:37.126Z,7.69
2024-04-24T15:58:03.917Z,7.64
2024-04-24T16:00:30.558Z,7.66
2024-04-24T16:02:57.402Z,7.59
2024-04-24T16:05:24.187Z,7.58
2024-04-24T16:07:50.941Z,7.59
2024-04-24T16:10:17.754Z,7.65
2024-04-24T16:12:44.538Z,7.69
2024-04-24T16:15:11.176Z,7.72
2024-04-24T16:17:37.990Z,7.77
2024-04-24T16:20:05.466Z,7.77
2024-04-24T16:22:32.098Z,7.80
2024-04-24T16:24:58.775Z,7.76
2024-04-24T16:27:25.929Z,7.72
2024-04-24T16:29:52.602Z,7.66
2024-04-24T16:32:19.483Z,7.63
2024-04-24T16:34:46.306Z,7.62
2024-04-24T16:37:13.433Z,7.64
2024-04-24T16:39:41.750Z,7.57
2024-04-24T16:42:08.684Z,7.43
2024-04-24T16:44:35.297Z,7.33
2024-04-24T16:47:02.104Z,7.29
2024-04-24T16:49:33.345Z,7.23
2024-04-24T16:52:01.448Z,7.19
2024-04-24T16:54:28.089Z,7.20
2024-04-24T16:56:54.717Z,7.18
2024-04-24T16:59:21.369Z,7.14
2024-04-24T17:01:48.053Z,7.11
2024-04-24T17:04:14.755Z,7.06
2024-04-24T17:06:41.503Z,7.05
2024-04-24T17:09:08.229Z,7.00
2024-04-24T17:11:35.981Z,6.98
2024-04-24T17:14:03.572Z,6.89
2024-04-24T17:16:30.369Z,6.93
2024-04-24T17:18:59.220Z,6.98
2024-04-24T17:21:26.155Z,6.95
2024-04-24T17:23:53.588Z,6.96
2024-04-24T17:26:29.676Z,6.87
2024-04-24T17:29:01.965Z,6.87
2024-04-24T17:31:28.794Z,6.85
2024-04-24T17:33:55.491Z,6.92
2024-04-24T17:36:22.560Z,6.87
2024-04-24T17:38:49.244Z,6.84
2024-04-24T17:41:15.920Z,6.88
2024-04-24T17:43:42.546Z,6.83
2024-04-24T17:46:09.476Z,6.82
2024-04-24T17:48:36.469Z,6.80
2024-04-24T17:51:05.020Z,6.85
2024-04-24T17:53:31.810Z,6.80
2024-04-24T17:55:58.550Z,6.82
2024-04-24T17:58:26.995Z,6.84
2024-04-24T18:00:54.773Z,6.83
2024-04-24T18:03:22.159Z,6.84
2024-04-24T18:05:49.691Z,6.79
2024-04-24T18:08:19.268Z,6.78
2024-04-24T18:10:46.251Z,6.71
2024-04-24T18:13:13.133Z,6.68
2024-04-24T18:15:40.608Z,6.67
2024-04-24T18:18:07.385Z,6.59
2024-04-24T18:20:34.301Z,6.57
2024-04-24T18:23:01.133Z,6.58
2024-04-24T18:25:29.357Z,6.55
2024-04-24T18:27:56.114Z,6.54
2024-04-24T18:30:22.882Z,6.59
2024-04-24T18:32:49.778Z,6.61
2024-04-24T18:35:17.642Z,6.51
2024-04-24T18:37:44.575Z,6.54
2024-04-24T18:40:11.814Z,6.53
2024-04-24T18:42:38.607Z,6.48
2024-04-24T18:45:05.536Z,6.43
2024-04-24T18:47:34.943Z,6.43
2024-04-24T18:50:01.740Z,6.42
2024-04-24T18:52:28.436Z,6.42
2024-04-24T18:54:55.044Z,6.41
2024-04-24T18:57:21.687Z,6.27
2024-04-24T18:59:48.336Z,6.31
2024-04-24T19:02:14.980Z,6.27
2024-04-24T19:04:41.605Z,6.25
2024-04-24T19:07:08.383Z,6.24
2024-04-24T19:09:35.988Z,6.12
2024-04-24T19:12:04.536Z,6.08
2024-04-24T19:14:31.348Z,6.14
2024-04-24T19:17:00.108Z,6.08
2024-04-24T19:19:29.766Z,6.04
2024-04-24T19:21:56.425Z,6.01
2024-04-24T19:24:24.174Z,6.00
2024-04-24T19:26:50.820Z,5.97
2024-04-24T19:29:17.457Z,5.93
2024-04-24T19:31:44.229Z,5.87
2024-04-24T19:34:10.863Z,5.83
2024-04-24T19:36:37.522Z,5.85
2024-04-24T19:39:04.336Z,5.84
2024-04-24T19:41:31.084Z,5.86
2024-04-24T19:43:57.758Z,5.86
2024-04-24T19:46:24.808Z,5.82
2024-04-24T19:48:54.599Z,5.74
2024-04-24T19:51:21.245Z,5.77
2024-04-24T19:53:47.868Z,5.77
2024-04-24T19:56:14.630Z,5.74
2024-04-24T19:58:41.642Z,5.78
2024-04-24T20:01:09.986Z,5.80
2024-04-24T20:03:40.288Z,5.77
2024-04-24T20:06:07.810Z,5.74
2024-04-24T20:08:35.924Z,5.71
2024-04-24T20:11:06.698Z,5.68
2024-04-24T20:13:36.605Z,5.69
2024-04-24T20:16:07.703Z,5.65
2024-04-24T20:18:37.369Z,5.68
2024-04-24T20:21:05.475Z,5.72
2024-04-24T20:23:32.508Z,5.78
2024-04-24T20:25:59.164Z,5.79
2024-04-24T20:28:25.804Z,5.77
2024-04-24T20:30:52.409Z,5.72
2024-04-24T20:33:19.271Z,5.67
2024-04-24T20:35:46.174Z,5.66
2024-04-24T20:38:13.434Z,5.68
2024-04-24T20:40:40.075Z,5.71
2024-04-24T20:43:06.728Z,5.66
2024-04-24T20:45:33.323Z,5.67
2024-04-24T20:48:01.358Z,5.60
2024-04-24T20:50:28.242Z,5.69
2024-04-24T20:52:55.016Z,5.74
2024-04-24T20:55:21.727Z,5.73
2024-04-24T20:57:48.357Z,5.78
2024-04-24T21:00:15.489Z,5.77
2024-04-24T21:02:42.214Z,5.76
2024-04-24T21:05:08.959Z,5.75
2024-04-24T21:07:36.035Z,5.75
2024-04-24T21:10:02.685Z,5.70
2024-04-24T21:12:29.385Z,5.71
2024-04-24T21:14:55.997Z,5.65
2024-04-24T21:17:22.736Z,5.67
2024-04-24T21:19:49.562Z,5.68
2024-04-24T21:22:17.018Z,5.65
2024-04-24T21:24:43.699Z,5.64
2024-04-24T21:27:12.864Z,5.61
2024-04-24T21:29:41.233Z,5.66
2024-04-24T21:32:07.951Z,5.70
2024-04-24T21:34:34.991Z,5.71
2024-04-24T21:37:01.609Z,5.66
2024-04-24T21:39:28.334Z,5.65
2024-04-24T21:41:57.319Z,5.65
2024-04-24T21:44:24.254Z,5.62
2024-04-24T21:46:50.882Z,5.65
2024-04-24T21:49:17.596Z,5.64
2024-04-24T21:51:44.226Z,5.67
2024-04-24T21:54:10.936Z,5.70
2024-04-24T21:56:37.790Z,5.65
2024-04-24T21:59:04.590Z,5.69
2024-04-24T22:01:31.236Z,5.67
2024-04-24T22:04:01.569Z,5.68
2024-04-24T22:06:29.458Z,5.69
2024-04-24T22:08:56.103Z,5.69
2024-04-24T22:11:22.819Z,5.69
2024-04-24T22:13:49.527Z,5.61
2024-04-24T22:16:16.715Z,5.58
2024-04-24T22:18:44.158Z,5.56
2024-04-24T22:21:11.793Z,5.54
2024-04-24T22:23:38.582Z,5.49
2024-04-24T22:26:05.395Z,5.48
2024-04-24T22:28:32.038Z,5.46
2024-04-24T22:30:58.673Z,5.38
2024-04-24T22:33:26.036Z,5.39
2024-04-24T22:35:52.754Z,5.33
2024-04-24T22:38:19.359Z,5.26
2024-04-24T22:40:46.032Z,5.33
2024-04-24T22:43:12.742Z,5.33
2024-04-24T22:45:39.661Z,5.33
2024-04-24T22:48:06.670Z,5.36
2024-04-24T22:50:33.940Z,5.37
2024-04-24T22:53:00.597Z,5.36
2024-04-24T22:55:27.258Z,5.36
2024-04-24T22:57:53.833Z,5.39
2024-04-24T23:00:20.568Z,5.40
2024-04-24T23:02:47.281Z,5.40
2024-04-24T23:05:14.074Z,5.32
2024-04-24T23:07:40.712Z,5.29
2024-04-24T23:10:07.521Z,5.22
2024-04-24T23:12:34.172Z,5.24
2024-04-24T23:15:00.810Z,5.21
2024-04-24T23:17:27.510Z,5.22
2024-04-24T23:19:54.179Z,5.31
2024-04-24T23:22:20.820Z,5.19
2024-04-24T23:24:47.454Z,5.16
2024-04-24T23:27:14.131Z,5.14
2024-04-24T23:29:43.089Z,5.11
2024-04-24T23:32:09.787Z,5.15
2024-04-24T23:34:36.433Z,5.13
2024-04-24T23:37:03.124Z,5.09
2024-04-24T23:39:29.731Z,5.03
2024-04-24T23:41:56.366Z,5.04
2024-04-24T23:44:23.042Z,5.06
2024-04-24T23:46:50.016Z,5.05
2024-04-24T23:49:16.749Z,5.04
2024-04-24T23:51:43.364Z,5.05
2024-04-24T23:54:10.066Z,5.09
2024-04-24T23:56:38.511Z,5.04
2024-04-24T23:59:05.377Z,5.07
